Time;durP1;ratioP1;P1;durP2;ratioP2;P2;SDS_P1;SDS_P2;PMS_P1;PMS_P2;Temp;Humidity;BMP_temperature;BMP_pressure;BME280_temperature;BME280_humidity;BME280_pressure;Samples;Min_cycle;Max_cycle;Signal;HPM_P1;HPM_P2
2021/07/08 00:01:28;;;;;;;7.18;5.30;;;19.20;84.00;;;17.92;83.83;96260.72;4981815;28;20471;-70
2021/07/08 00:03:55;;;;;;;7.22;5.47;;;19.20;84.10;;;17.91;82.91;96265.22;4975724;28;20631;-70
2021/07/08 00:06:21;;;;;;;5.45;4.68;;;19.20;84.00;;;17.90;83.80;96262.81;4981051;28;20040;-71
2021/07/08 00:08:46;;;;;;;7.03;5.15;;;19.20;83.90;;;17.88;83.44;96259.53;4966490;28;20035;-70
2021/07/08 00:11:12;;;;;;;5.57;4.63;;;19.10;84.00;;;17.86;83.50;96257.09;4963226;28;20093;-70
2021/07/08 00:13:38;;;;;;;8.65;5.03;;;19.20;83.90;;;17.86;83.09;96256.28;4981159;28;20034;-70
2021/07/08 00:16:04;;;;;;;7.57;5.47;;;19.10;83.90;;;17.84;83.41;96243.22;4990792;28;20104;-70
2021/07/08 00:18:30;;;;;;;4.95;4.53;;;19.10;83.90;;;17.83;84.01;96254.09;4991066;28;20034;-70
2021/07/08 00:20:56;;;;;;;8.43;4.80;;;19.10;84.10;;;17.82;84.04;96276.44;4963610;28;20109;-70
2021/07/08 00:23:22;;;;;;;5.50;4.55;;;19.10;84.30;;;17.80;84.03;96271.34;4971692;28;20042;-70
2021/07/08 00:25:49;;;;;;;4.32;3.83;;;19.10;84.10;;;17.82;83.21;96257.81;4971163;28;20042;-70
2021/07/08 00:28:15;;;;;;;5.38;3.78;;;19.10;84.00;;;17.82;83.56;96244.50;4955741;28;20035;-70
2021/07/08 00:30:43;;;;;;;5.60;3.80;;;19.10;83.80;;;17.79;83.62;96235.13;4977963;28;20043;-72
2021/07/08 00:33:09;;;;;;;5.30;3.58;;;19.10;83.90;;;17.80;83.29;96235.94;4949615;28;20497;-70
2021/07/08 00:35:36;;;;;;;7.65;3.95;;;19.10;83.70;;;17.79;84.17;96234.31;4975042;28;20105;-70
2021/07/08 00:38:02;;;;;;;6.03;3.33;;;19.10;83.90;;;17.77;82.92;96231.09;5026126;22;20045;-68
2021/07/08 00:40:27;;;;;;;5.38;3.47;;;19.10;83.90;;;17.74;84.23;96232.34;5042647;28;20083;-66
2021/07/08 00:42:53;;;;;;;4.80;3.40;;;19.00;84.00;;;17.73;83.18;96238.72;5029452;28;20606;-66
2021/07/08 00:45:20;;;;;;;5.72;3.35;;;19.00;83.80;;;17.71;83.96;96230.97;4997387;28;20540;-72
2021/07/08 00:47:46;;;;;;;5.65;3.50;;;19.00;83.80;;;17.69;83.59;96225.06;5010213;28;20041;-65
2021/07/08 00:50:12;;;;;;;4.13;3.22;;;19.00;83.90;;;17.69;84.16;96221.59;5024063;28;20530;-65
2021/07/08 00:52:38;;;;;;;4.68;3.40;;;19.00;83.90;;;17.68;83.28;96223.47;5028816;28;20055;-67
2021/07/08 00:55:06;;;;;;;5.40;2.80;;;19.00;83.80;;;17.67;84.07;96224.50;5017498;28;20481;-66
2021/07/08 00:57:31;;;;;;;6.95;2.83;;;19.00;83.60;;;17.68;83.86;96226.13;5054985;28;20025;-66
2021/07/08 00:59:57;;;;;;;2.85;2.50;;;19.00;83.40;;;17.66;83.21;96230.84;5033099;28;20044;-66
2021/07/08 01:02:23;;;;;;;5.10;2.97;;;19.00;83.50;;;17.64;83.35;96243.53;5062934;28;20048;-67
2021/07/08 01:04:49;;;;;;;3.85;2.83;;;18.90;83.80;;;17.61;83.88;96249.31;5050180;28;20036;-67
2021/07/08 01:07:18;;;;;;;6.32;2.88;;;19.00;84.00;;;17.59;84.16;96254.03;5065538;28;20040;-67
2021/07/08 01:09:44;;;;;;;3.08;2.78;;;18.90;83.70;;;17.57;83.79;96253.47;5064157;28;20036;-66
2021/07/08 01:12:09;;;;;;;4.57;3.00;;;18.80;83.70;;;17.56;83.77;96254.50;5015182;28;20032;-66
2021/07/08 01:14:35;;;;;;;4.85;2.88;;;18.90;83.90;;;17.54;84.17;96253.94;5031112;28;20032;-67
2021/07/08 01:17:01;;;;;;;4.70;2.80;;;18.90;83.90;;;17.52;83.18;96255.19;5031750;28;20030;-66
2021/07/08 01:19:28;;;;;;;4.10;3.10;;;18.80;83.70;;;17.50;83.87;96247.44;5065788;28;20036;-67
2021/07/08 01:21:54;;;;;;;4.35;2.95;;;18.80;83.70;;;17.51;83.60;96254.38;5052845;28;20129;-67
2021/07/08 01:24:19;;;;;;;4.40;3.00;;;18.80;83.90;;;17.51;83.46;96245.59;5059840;28;20500;-67
2021/07/08 01:26:45;;;;;;;4.28;3.00;;;18.90;84.10;;;17.51;83.94;96235.78;5051166;28;20412;-66
2021/07/08 01:29:11;;;;;;;3.20;2.90;;;18.90;84.00;;;17.51;83.66;96233.13;5032916;28;20040;-66
2021/07/08 01:31:37;;;;;;;3.85;2.65;;;18.80;84.20;;;17.51;84.02;96235.78;5015985;28;20441;-66
2021/07/08 01:34:03;;;;;;;4.03;2.80;;;18.80;84.00;;;17.50;84.05;96231.50;5055260;28;20505;-66
2021/07/08 01:36:29;;;;;;;5.00;2.35;;;18.80;84.00;;;17.50;84.10;96230.69;5032261;28;20373;-66
2021/07/08 01:38:54;;;;;;;3.78;2.63;;;18.80;84.00;;;17.49;83.53;96223.75;5048997;28;20029;-66
2021/07/08 01:41:20;;;;;;;5.53;2.50;;;18.80;83.80;;;17.46;83.76;96225.00;5048865;28;20025;-67
2021/07/08 01:43:46;;;;;;;4.68;2.92;;;18.80;84.00;;;17.45;84.09;96223.41;5051924;28;20083;-67
2021/07/08 01:46:15;;;;;;;3.88;2.63;;;18.80;84.10;;;17.45;84.00;96213.56;5019193;28;20049;-67
2021/07/08 01:48:44;;;;;;;4.88;3.08;;;18.80;84.10;;;17.47;83.87;96200.03;5032862;28;20048;-66
2021/07/08 01:51:27;;;;;;;3.92;2.70;;;18.80;84.10;;;17.47;85.43;96193.91;5032107;28;20039;-66
2021/07/08 01:53:53;;;;;;;2.85;2.28;;;18.80;84.20;;;17.47;84.39;96180.63;5050346;28;20037;-67
2021/07/08 01:56:19;;;;;;;7.32;2.40;;;18.90;84.30;;;17.48;84.14;96172.41;5046925;28;20052;-66
2021/07/08 01:58:45;;;;;;;2.65;2.15;;;18.80;84.10;;;17.48;84.41;96161.78;5049412;28;20037;-66
2021/07/08 02:01:11;;;;;;;2.90;2.25;;;18.90;83.80;;;17.48;83.80;96153.78;5048288;28;20029;-66
2021/07/08 02:03:37;;;;;;;4.47;2.42;;;18.80;84.00;;;17.47;84.52;96152.19;5054392;28;20063;-66
2021/07/08 02:06:04;;;;;;;3.92;2.17;;;18.80;84.00;;;17.46;83.74;96155.88;5033190;28;20033;-66
2021/07/08 02:08:30;;;;;;;2.72;2.20;;;18.90;83.80;;;17.47;84.64;96146.84;5019486;28;20041;-67
2021/07/08 02:10:55;;;;;;;3.78;2.33;;;18.80;84.10;;;17.46;84.08;96150.56;5053902;28;20624;-66
2021/07/08 02:13:21;;;;;;;3.03;2.40;;;18.90;84.10;;;17.47;84.25;96149.50;5050266;28;20032;-66
2021/07/08 02:15:47;;;;;;;5.60;2.20;;;18.80;84.00;;;17.46;84.33;96139.91;5038140;28;20040;-66
2021/07/08 02:18:13;;;;;;;4.25;2.47;;;18.80;84.10;;;17.47;84.02;96141.53;5048638;28;20032;-66
2021/07/08 02:20:41;;;;;;;2.70;2.17;;;18.80;84.20;;;17.47;84.55;96152.19;5039001;28;20040;-67
2021/07/08 02:23:07;;;;;;;16.35;13.45;;;18.80;84.20;;;17.48;84.97;96163.63;5048785;28;20044;-66
2021/07/08 02:25:32;;;;;;;24.88;19.65;;;18.90;84.30;;;17.47;84.74;96151.38;5013486;28;20041;-66
2021/07/08 02:27:58;;;;;;;14.02;10.23;;;18.90;84.30;;;17.47;84.67;96146.84;5065142;28;20604;-66
2021/07/08 02:30:24;;;;;;;8.32;5.35;;;18.90;84.20;;;17.49;84.79;96150.09;5038863;28;20098;-66
2021/07/08 02:32:54;;;;;;;12.10;5.57;;;18.90;84.20;;;17.50;84.61;96151.72;5063440;28;20168;-66
2021/07/08 02:35:21;;;;;;;5.45;4.28;;;18.90;84.10;;;17.51;84.54;96155.19;5039046;28;20115;-67
2021/07/08 02:37:47;;;;;;;9.50;7.40;;;18.90;84.30;;;17.51;84.57;96163.97;5016722;28;20033;-66
2021/07/08 02:40:20;;;;;;;7.75;5.28;;;18.90;84.30;;;17.52;85.53;96154.13;5028814;28;20033;-66
2021/07/08 02:42:53;;;;;;;10.60;6.50;;;18.90;84.30;;;17.52;84.62;96160.25;5032375;28;20071;-66
2021/07/08 02:45:24;;;;;;;6.13;4.05;;;18.90;84.40;;;17.51;85.00;96160.50;5018622;28;20045;-66
2021/07/08 02:47:50;;;;;;;9.20;3.55;;;18.90;84.10;;;17.51;85.23;96169.28;5006788;28;20041;-67
2021/07/08 02:50:16;;;;;;;7.85;3.00;;;18.90;84.10;;;17.50;84.59;96167.66;5050646;28;20093;-67
2021/07/08 02:52:43;;;;;;;8.30;2.88;;;19.00;84.20;;;17.50;84.98;96177.50;5068552;28;20052;-67
2021/07/08 02:55:09;;;;;;;3.60;3.03;;;18.90;84.20;;;17.52;85.11;96176.22;5055203;28;20037;-67
2021/07/08 02:57:35;;;;;;;2.58;2.38;;;19.00;84.40;;;17.51;85.10;96176.44;5041381;28;20028;-67
2021/07/08 03:00:01;;;;;;;5.15;2.85;;;19.00;84.30;;;17.52;85.09;96175.41;5060568;28;20455;-67
2021/07/08 03:02:27;;;;;;;4.25;2.60;;;19.00;84.30;;;17.52;85.16;96175.41;5035569;28;20388;-67
2021/07/08 03:04:52;;;;;;;3.90;2.60;;;19.00;84.20;;;17.52;85.34;96178.88;5051805;28;20032;-67
2021/07/08 03:07:18;;;;;;;5.78;2.88;;;18.90;84.10;;;17.53;85.41;96188.47;5014314;28;20090;-66
2021/07/08 03:09:44;;;;;;;5.57;2.83;;;19.00;84.40;;;17.54;85.33;96182.13;5050885;28;20115;-66
2021/07/08 03:12:10;;;;;;;6.05;2.90;;;19.00;84.40;;;17.54;84.74;96195.41;5053935;28;20581;-67
2021/07/08 03:14:35;;;;;;;4.03;2.90;;;19.00;84.50;;;17.54;85.26;96208.72;5036771;28;20438;-66
2021/07/08 03:17:01;;;;;;;5.13;4.20;;;19.00;84.60;;;17.54;84.81;96207.91;5056707;28;20047;-66
2021/07/08 03:19:27;;;;;;;6.45;4.60;;;19.00;84.60;;;17.54;85.42;96195.41;5050683;28;20504;-67
2021/07/08 03:21:52;;;;;;;6.88;3.10;;;19.00;84.40;;;17.54;85.39;96200.72;5031098;28;20037;-66
2021/07/08 03:24:18;;;;;;;4.88;2.95;;;18.80;84.80;;;17.52;85.69;96200.16;5047971;28;20040;-67
2021/07/08 03:26:44;;;;;;;4.20;2.53;;;18.80;85.00;;;17.53;85.63;96198.31;5020842;28;20038;-67
2021/07/08 03:29:10;;;;;;;5.05;3.00;;;18.80;85.10;;;17.52;85.72;96202.81;5040360;28;20028;-67
2021/07/08 03:31:35;;;;;;;5.65;3.30;;;18.90;84.90;;;17.52;85.70;96192.19;5032276;28;20040;-66
2021/07/08 03:34:01;;;;;;;4.57;2.78;;;18.90;84.90;;;17.51;85.81;96195.88;5067245;28;20086;-66
2021/07/08 03:36:27;;;;;;;5.72;2.95;;;18.90;84.80;;;17.50;85.38;96204.91;5015168;28;20028;-67
2021/07/08 03:38:53;;;;;;;8.38;2.95;;;18.90;84.80;;;17.49;85.49;96197.97;5049850;28;20495;-67
2021/07/08 03:41:18;;;;;;;10.13;2.72;;;18.90;84.90;;;17.49;85.35;96197.16;5028716;28;20044;-66
2021/07/08 03:43:45;;;;;;;5.18;3.00;;;18.90;84.70;;;17.48;85.95;96196.34;5054660;28;20029;-66
2021/07/08 03:46:11;;;;;;;7.10;2.78;;;18.90;84.90;;;17.50;85.56;96199.56;5051240;28;20033;-66
2021/07/08 03:48:37;;;;;;;6.55;2.00;;;18.90;85.00;;;17.49;85.06;96203.28;5035561;28;20061;-66
2021/07/08 03:51:03;;;;;;;3.58;2.88;;;18.80;85.20;;;17.48;85.95;96206.16;5053146;28;20124;-67
2021/07/08 03:53:28;;;;;;;4.88;2.90;;;18.90;84.90;;;17.47;85.39;96223.16;5046463;28;20071;-66
2021/07/08 03:55:54;;;;;;;6.30;3.05;;;18.80;85.00;;;17.46;85.23;96230.34;5047752;28;20083;-67
2021/07/08 03:58:20;;;;;;;4.78;2.90;;;18.90;84.70;;;17.46;85.11;96230.34;5030154;28;20036;-66
2021/07/08 04:00:46;;;;;;;5.97;2.90;;;18.90;84.60;;;17.45;85.64;96229.53;5053141;28;20412;-66
2021/07/08 04:03:14;;;;;;;7.65;2.63;;;18.90;84.90;;;17.47;85.54;96231.97;5060128;28;20056;-67
2021/07/08 04:05:40;;;;;;;3.25;2.63;;;18.90;84.90;;;17.47;86.11;96216.00;5053138;28;20106;-70
2021/07/08 04:08:06;;;;;;;5.93;2.90;;;18.80;85.20;;;17.48;85.41;96220.28;5045470;28;20566;-74
2021/07/08 04:10:32;;;;;;;3.95;3.08;;;18.90;85.10;;;17.49;85.74;96227.22;5028480;28;20112;-68
2021/07/08 04:12:58;;;;;;;4.68;3.08;;;18.90;85.20;;;17.51;85.78;96226.97;5025774;28;20098;-68
2021/07/08 04:15:24;;;;;;;4.13;3.10;;;18.90;85.00;;;17.51;85.95;96221.66;5044311;28;20087;-67
2021/07/08 04:17:50;;;;;;;4.57;3.30;;;18.90;84.60;;;17.51;85.54;96219.81;5042551;28;20041;-69
2021/07/08 04:20:18;;;;;;;4.53;3.25;;;18.90;84.70;;;17.52;85.50;96226.75;5050866;28;20033;-71
2021/07/08 04:22:45;;;;;;;4.35;3.42;;;18.90;84.70;;;17.53;85.51;96231.03;5031506;28;20508;-68
2021/07/08 04:25:12;;;;;;;5.82;3.30;;;18.90;84.70;;;17.54;85.40;96232.66;5064652;28;20050;-66
2021/07/08 04:27:38;;;;;;;6.22;3.47;;;19.00;84.40;;;17.55;85.20;96228.94;5046736;28;20128;-66
2021/07/08 04:30:05;;;;;;;6.93;4.10;;;19.10;84.50;;;17.55;86.36;96234.28;5069170;28;20086;-67
2021/07/08 04:32:31;;;;;;;7.75;4.75;;;19.00;84.70;;;17.57;85.78;96245.50;5049533;28;20166;-67
2021/07/08 04:34:57;;;;;;;5.50;5.00;;;19.00;84.80;;;17.59;85.65;96246.06;5050561;28;20037;-67
2021/07/08 04:37:23;;;;;;;7.88;5.90;;;19.00;84.60;;;17.61;85.48;96245.84;5031504;28;20110;-68
2021/07/08 04:39:49;;;;;;;7.82;5.45;;;19.10;84.60;;;17.62;85.62;96253.59;5062024;28;20067;-67
2021/07/08 04:42:14;;;;;;;7.72;7.03;;;19.10;84.60;;;17.62;86.14;96253.59;5028572;28;20090;-67
2021/07/08 04:44:40;;;;;;;8.85;7.25;;;19.10;84.60;;;17.64;86.00;96232.88;5034062;28;20443;-67
2021/07/08 04:47:06;;;;;;;11.77;8.43;;;19.10;84.50;;;17.66;86.00;96236.16;5037470;28;20112;-67
2021/07/08 04:49:34;;;;;;;10.38;9.38;;;19.10;84.40;;;17.66;86.22;96249.44;5063310;28;20099;-67
2021/07/08 04:52:01;;;;;;;10.30;9.32;;;19.10;84.60;;;17.68;85.25;96250.06;5038855;28;20029;-67
2021/07/08 04:54:26;;;;;;;10.52;8.93;;;19.10;84.60;;;17.66;85.57;96220.19;5045928;28;20087;-67
2021/07/08 04:56:52;;;;;;;11.55;9.82;;;19.10;84.50;;;17.69;85.52;96219.75;5033248;28;20041;-67
2021/07/08 04:59:18;;;;;;;12.02;10.73;;;19.10;84.60;;;17.70;85.40;96215.25;5060005;28;20044;-68
2021/07/08 05:01:43;;;;;;;18.92;11.25;;;19.10;84.50;;;17.71;85.64;96225.66;5042484;28;20036;-68
2021/07/08 05:04:09;;;;;;;12.77;10.93;;;19.20;84.60;;;17.73;85.61;96222.75;5037741;28;20044;-68
2021/07/08 05:06:35;;;;;;;13.55;12.15;;;19.20;84.50;;;17.74;85.83;96208.41;5018790;28;20041;-68
2021/07/08 05:09:01;;;;;;;14.60;12.57;;;19.20;84.80;;;17.75;86.23;96221.47;5058403;28;20416;-67
2021/07/08 05:11:26;;;;;;;15.38;13.60;;;19.20;84.80;;;17.75;85.97;96218.81;5023965;28;20036;-67
2021/07/08 05:13:52;;;;;;;15.95;14.20;;;19.20;85.00;;;17.78;86.05;96222.06;5040022;28;20094;-67
2021/07/08 05:16:18;;;;;;;16.90;13.70;;;19.20;85.00;;;17.79;86.41;96215.69;5032634;28;20451;-68
2021/07/08 05:18:43;;;;;;;16.70;15.02;;;19.20;85.10;;;17.81;85.59;96219.75;5049289;28;20029;-68
2021/07/08 05:21:09;;;;;;;21.30;15.07;;;19.20;84.80;;;17.81;86.02;96233.03;5057421;28;20037;-68
2021/07/08 05:23:38;;;;;;;20.08;15.13;;;19.20;84.80;;;17.82;85.88;96229.34;5041542;28;20095;-67
2021/07/08 05:26:13;;;;;;;18.15;16.25;;;19.10;85.10;;;17.81;86.59;96222.41;5044348;28;20025;-67
2021/07/08 05:28:39;;;;;;;18.73;16.80;;;19.10;85.10;;;17.81;86.23;96216.28;5062756;28;20073;-66
2021/07/08 05:31:04;;;;;;;19.15;17.02;;;19.20;85.00;;;17.84;85.85;96226.44;5061936;28;20032;-66
2021/07/08 05:33:30;;;;;;;27.77;23.70;;;19.30;84.90;;;17.89;86.04;96231.91;5044611;28;20041;-72
2021/07/08 05:35:56;;;;;;;20.80;18.67;;;19.40;85.00;;;17.93;86.49;96225.88;5057419;28;20492;-69
2021/07/08 05:38:21;;;;;;;19.02;17.15;;;19.50;84.80;;;18.00;86.37;96217.78;5043894;28;20037;-69
2021/07/08 05:40:47;;;;;;;18.88;16.63;;;19.60;84.40;;;18.04;85.78;96221.59;5031495;28;20516;-68
2021/07/08 05:43:13;;;;;;;18.98;16.17;;;19.60;84.20;;;18.10;86.52;96214.53;5048645;28;20037;-68
2021/07/08 05:45:39;;;;;;;18.55;16.58;;;19.80;84.10;;;18.15;86.40;96226.09;5035067;28;20173;-69
2021/07/08 05:48:05;;;;;;;18.35;15.55;;;19.80;83.70;;;18.21;86.44;96227.84;5064301;28;20114;-69
2021/07/08 05:50:30;;;;;;;20.00;16.73;;;19.80;83.50;;;18.26;85.62;96235.13;5033129;28;20059;-69
2021/07/08 05:52:56;;;;;;;18.35;16.38;;;19.90;83.00;;;18.30;84.73;96223.75;5029636;28;20037;-69
2021/07/08 05:55:22;;;;;;;16.60;14.70;;;19.90;82.90;;;18.36;85.73;96225.50;5064466;28;20150;-66
2021/07/08 05:57:48;;;;;;;17.90;15.15;;;20.00;83.00;;;18.38;85.59;96233.25;5035081;28;20040;-65
2021/07/08 06:00:19;;;;;;;23.50;20.38;;;20.00;83.00;;;18.39;85.37;96240.19;5029794;28;20090;-70
2021/07/08 06:02:44;;;;;;;21.58;17.33;;;20.00;82.90;;;18.40;86.05;96227.69;5048685;28;20029;-73
2021/07/08 06:05:11;;;;;;;20.80;16.45;;;19.90;83.00;;;18.41;84.41;96227.47;5049069;28;20041;-67
2021/07/08 06:07:36;;;;;;;19.90;17.80;;;20.00;83.10;;;18.46;84.66;96234.72;5047691;28;20029;-65
2021/07/08 06:10:05;;;;;;;18.98;16.23;;;20.00;83.00;;;18.49;85.40;96226.28;5044104;28;20518;-66
2021/07/08 06:12:31;;;;;;;18.83;16.92;;;20.10;83.20;;;18.54;85.92;96242.34;5024660;28;20051;-66
2021/07/08 06:14:56;;;;;;;19.33;17.33;;;20.10;83.10;;;18.57;85.24;96236.56;5064720;28;20025;-65
2021/07/08 06:17:22;;;;;;;20.15;18.05;;;20.20;82.60;;;18.58;84.47;96241.66;5047053;28;20048;-66
2021/07/08 06:19:48;;;;;;;19.58;17.55;;;20.20;82.30;;;18.61;84.37;96246.53;5046354;28;20033;-66
2021/07/08 06:22:13;;;;;;;19.80;17.73;;;20.10;82.50;;;18.62;84.45;96248.16;5050544;28;20025;-68
2021/07/08 06:24:39;;;;;;;19.85;17.88;;;20.10;82.40;;;18.60;84.69;96250.22;5054538;28;20045;-66
2021/07/08 06:27:05;;;;;;;24.27;21.70;;;20.10;82.40;;;18.60;84.54;96252.91;5033801;28;20357;-66
2021/07/08 06:29:30;;;;;;;19.50;17.42;;;20.10;82.60;;;18.62;84.39;96242.00;5037317;28;20044;-66
2021/07/08 06:31:56;;;;;;;18.02;16.25;;;20.10;82.50;;;18.64;83.72;96237.28;5024595;28;20492;-68
2021/07/08 06:34:22;;;;;;;18.65;16.67;;;20.10;82.80;;;18.65;83.59;96241.56;5033669;28;20040;-68
2021/07/08 06:36:48;;;;;;;21.70;16.85;;;20.10;82.40;;;18.64;83.41;96237.28;5059695;28;20032;-66
2021/07/08 06:39:13;;;;;;;19.83;15.80;;;20.10;82.20;;;18.65;84.27;96244.22;5049775;28;20737;-68
2021/07/08 06:41:39;;;;;;;17.38;15.75;;;20.20;82.00;;;18.64;83.89;96247.94;5051577;28;20059;-69
2021/07/08 06:44:05;;;;;;;16.83;15.18;;;20.20;82.00;;;18.67;83.65;96255.44;5037278;28;20025;-66
2021/07/08 06:46:31;;;;;;;21.20;16.40;;;20.20;81.80;;;18.69;84.00;96249.88;5027266;28;20053;-67
2021/07/08 06:49:00;;;;;;;16.55;14.85;;;20.30;81.90;;;18.73;83.72;96238.50;5038580;28;20040;-72
2021/07/08 06:51:26;;;;;;;16.52;14.90;;;20.40;81.40;;;18.77;83.31;96237.00;5027283;28;20043;-67
2021/07/08 06:53:54;;;;;;;16.80;14.73;;;20.50;81.40;;;18.81;83.94;96227.50;5050416;28;20032;-68
2021/07/08 06:56:19;;;;;;;18.50;15.23;;;20.50;81.20;;;18.88;83.78;96228.16;5038708;28;20530;-71
2021/07/08 06:58:45;;;;;;;15.52;13.55;;;20.60;81.30;;;18.95;83.10;96226.16;5044071;28;20049;-68
2021/07/08 07:01:11;;;;;;;15.77;13.73;;;20.60;81.10;;;19.02;83.36;96218.03;5047231;28;20044;-67
2021/07/08 07:03:36;;;;;;;15.65;14.25;;;20.70;80.90;;;19.10;83.08;96224.81;5058230;28;20029;-71
2021/07/08 07:06:03;;;;;;;15.30;13.80;;;20.80;80.70;;;19.15;83.05;96224.91;5055514;28;20090;-68
2021/07/08 07:08:28;;;;;;;14.60;13.20;;;20.80;80.70;;;19.18;83.31;96232.41;5013064;28;20037;-65
2021/07/08 07:10:54;;;;;;;14.43;13.02;;;20.80;80.40;;;19.19;82.52;96240.19;5059960;28;20083;-66
2021/07/08 07:13:20;;;;;;;14.32;12.73;;;20.80;80.50;;;19.20;83.27;96244.47;5033654;28;20115;-73
2021/07/08 07:15:46;;;;;;;13.95;12.40;;;20.80;80.50;;;19.22;83.19;96244.22;5039221;28;20493;-71
2021/07/08 07:18:11;;;;;;;12.95;11.75;;;20.90;80.10;;;19.23;82.39;96246.66;5050894;28;20056;-69
2021/07/08 07:20:37;;;;;;;13.60;12.35;;;20.80;80.40;;;19.25;82.84;96254.44;5005957;28;20037;-68
2021/07/08 07:23:03;;;;;;;18.38;12.45;;;20.80;80.70;;;19.26;82.46;96246.19;5053270;28;20029;-71
2021/07/08 07:25:29;;;;;;;14.18;12.85;;;20.80;80.40;;;19.27;83.04;96247.81;5013066;28;20679;-66
2021/07/08 07:27:55;;;;;;;14.48;12.27;;;20.90;80.30;;;19.28;81.90;96249.44;5064813;28;20044;-65
2021/07/08 07:30:25;;;;;;;13.13;11.90;;;20.90;80.40;;;19.29;83.01;96252.91;5047144;28;20043;-65
2021/07/08 07:32:52;;;;;;;14.95;13.45;;;20.90;80.30;;;19.26;82.23;96245.38;5048978;28;20028;-65
2021/07/08 07:35:18;;;;;;;14.10;12.70;;;20.80;80.40;;;19.25;82.24;96249.09;5074727;28;20045;-71
2021/07/08 07:37:44;;;;;;;12.98;11.70;;;20.80;80.80;;;19.27;82.42;96247.00;5020971;28;20171;-70
2021/07/08 07:40:11;;;;;;;13.00;11.80;;;20.90;80.90;;;19.25;82.86;96246.44;5034400;28;20111;-70
2021/07/08 07:42:37;;;;;;;11.75;10.65;;;20.80;80.40;;;19.24;82.03;96252.81;5051249;28;20067;-67
2021/07/08 07:45:04;;;;;;;12.77;11.50;;;20.70;80.70;;;19.23;81.95;96256.50;5070214;28;20063;-66
2021/07/08 07:47:30;;;;;;;14.57;13.15;;;20.70;80.70;;;19.23;83.01;96272.50;5052944;28;20037;-67
2021/07/08 07:49:56;;;;;;;14.55;13.02;;;20.80;80.80;;;19.20;82.36;96276.47;5036099;28;20025;-68
2021/07/08 07:52:21;;;;;;;13.52;12.15;;;20.80;80.70;;;19.19;82.94;96282.03;5038718;28;20040;-68
2021/07/08 07:54:47;;;;;;;13.57;12.30;;;20.70;81.00;;;19.18;83.10;96275.09;5046257;28;20059;-68
2021/07/08 07:57:13;;;;;;;14.15;12.75;;;20.80;80.80;;;19.17;82.77;96268.94;5048534;28;20037;-67
2021/07/08 07:59:39;;;;;;;15.68;14.07;;;20.80;80.80;;;19.17;82.95;96274.28;5008428;28;20527;-68
2021/07/08 08:02:13;;;;;;;14.40;13.10;;;20.60;81.00;;;19.16;83.13;96282.50;5021066;28;20033;-69
2021/07/08 08:04:44;;;;;;;13.90;12.68;;;20.70;81.00;;;19.15;82.64;96280.91;5049791;28;20032;-69
2021/07/08 08:09:55;;;;;;;14.30;12.88;;;20.70;81.00;;;19.14;82.98;96284.63;5041857;28;20535;-68
2021/07/08 08:12:22;;;;;;;21.27;14.18;;;20.70;81.20;;;19.15;82.85;96283.56;5034609;28;20032;-68
2021/07/08 08:14:48;;;;;;;18.77;16.77;;;20.60;80.90;;;19.14;82.08;96268.63;5034415;28;20040;-68
2021/07/08 08:17:14;;;;;;;19.58;17.17;;;20.70;81.10;;;19.17;83.42;96262.81;5016010;28;20040;-67
2021/07/08 08:19:39;;;;;;;19.95;18.05;;;20.80;81.00;;;19.21;82.42;96253.28;5047228;28;20041;-65
2021/07/08 08:22:06;;;;;;;26.10;22.23;;;20.90;80.90;;;19.28;83.62;96253.94;5034025;28;20508;-65
2021/07/08 08:24:32;;;;;;;24.77;22.35;;;21.10;80.50;;;19.38;83.14;96259.44;5033771;28;20057;-69
2021/07/08 08:26:58;;;;;;;20.30;18.15;;;21.20;79.90;;;19.48;83.47;96254.31;5050376;28;20111;-66
2021/07/08 08:29:25;;;;;;;15.45;14.05;;;21.40;79.50;;;19.60;82.30;96267.59;5044608;28;20047;-71
2021/07/08 08:31:51;;;;;;;17.98;16.08;;;21.50;78.80;;;19.69;82.71;96278.66;5049632;28;20518;-67
2021/07/08 08:34:17;;;;;;;17.25;14.07;;;21.60;78.90;;;19.76;81.59;96279.34;5060515;28;20033;-67
2021/07/08 08:36:44;;;;;;;14.48;13.07;;;21.60;78.40;;;19.84;82.63;96278.94;5066014;28;20090;-68
2021/07/08 08:39:10;;;;;;;13.05;11.80;;;21.60;78.20;;;19.89;81.49;96287.00;5065334;28;20086;-68
2021/07/08 08:41:36;;;;;;;14.48;13.10;;;21.60;78.10;;;19.91;81.54;96278.75;5039899;28;20029;-66
2021/07/08 08:44:01;;;;;;;14.25;12.77;;;21.70;77.90;;;19.94;80.84;96288.97;5033729;28;20519;-69
2021/07/08 08:46:27;;;;;;;15.98;14.38;;;21.70;77.90;;;19.96;80.85;96293.03;5050048;28;20032;-66
2021/07/08 08:48:53;;;;;;;16.05;14.43;;;21.60;78.40;;;19.95;80.59;96304.75;5048600;28;20045;-67
2021/07/08 08:51:19;;;;;;;15.80;14.30;;;21.50;78.60;;;19.90;80.43;96299.31;5044896;28;20112;-66
2021/07/08 08:53:45;;;;;;;18.13;16.42;;;21.30;78.80;;;19.86;80.88;96298.97;5050729;28;20033;-65
2021/07/08 08:56:11;;;;;;;17.52;15.73;;;21.30;78.90;;;19.86;80.39;96293.66;5069251;28;20087;-65
2021/07/08 08:58:37;;;;;;;19.73;17.75;;;21.30;79.10;;;19.87;80.12;96289.13;5052174;28;20377;-65
2021/07/08 09:01:05;;;;;;;23.92;21.42;;;21.50;78.70;;;19.91;80.27;96284.09;5050220;28;20043;-65
2021/07/08 09:03:33;;;;;;;16.05;14.65;;;21.60;78.70;;;19.93;80.83;96295.38;5046466;28;20473;-64
2021/07/08 09:06:10;;;;;;;16.25;14.65;;;21.60;77.90;;;19.97;80.54;96294.63;5062072;28;20082;-69
2021/07/08 09:08:38;;;;;;;16.52;14.82;;;21.70;78.10;;;20.03;80.11;96306.19;5049993;28;20057;-69
2021/07/08 09:11:16;;;;;;;15.55;13.60;;;21.70;77.70;;;20.07;79.71;96310.81;5032597;28;20079;-64
2021/07/08 09:13:41;;;;;;;15.23;13.70;;;21.80;77.40;;;20.12;80.60;96302.06;5051335;28;20040;-65
2021/07/08 09:16:18;;;;;;;17.65;15.68;;;21.90;76.80;;;20.18;80.17;96307.25;5062891;28;20037;-65
2021/07/08 09:18:46;;;;;;;16.85;15.00;;;21.90;76.90;;;20.25;79.62;96300.91;5065466;28;20044;-66
2021/07/08 09:21:20;;;;;;;17.67;14.85;;;22.00;76.90;;;20.31;78.73;96305.28;5013781;28;20037;-65
2021/07/08 09:24:07;;;;;;;16.17;14.68;;;22.00;76.90;;;20.34;79.14;96294.91;5050795;28;20047;-65
2021/07/08 09:26:34;;;;;;;16.00;14.50;;;22.10;76.50;;;20.35;79.54;96298.38;5051031;28;20086;-65
2021/07/08 09:29:09;;;;;;;17.58;15.77;;;22.00;76.40;;;20.40;79.85;96303.81;5059804;28;20032;-65
2021/07/08 09:31:36;;;;;;;16.38;14.18;;;22.10;76.70;;;20.35;79.08;96309.88;5057107;28;20037;-67
2021/07/08 09:34:27;;;;;;;15.93;14.45;;;21.80;77.00;;;20.38;78.47;96305.94;5039627;28;20033;-66
2021/07/08 09:37:13;;;;;;;15.55;13.63;;;21.80;76.80;;;20.42;78.26;96312.44;5044257;28;20094;-65
2021/07/08 09:39:45;;;;;;;15.35;13.95;;;22.10;76.60;;;20.52;79.09;96291.19;5052671;28;20405;-65
2021/07/08 09:42:16;;;;;;;14.15;12.85;;;22.30;76.00;;;20.63;78.62;96281.44;5035280;28;20029;-65
2021/07/08 09:44:41;;;;;;;;;;;22.60;75.60;;;20.77;79.71;96258.63;5030116;28;20064;-65
2021/07/08 09:47:24;;;;;;;14.23;12.55;;;23.10;75.20;;;21.06;79.01;96259.25;5047831;28;19951;-65
2021/07/08 09:49:50;;;;;;;14.30;13.00;;;23.50;74.20;;;21.32;77.89;96263.00;5035449;28;20024;-65
2021/07/08 09:52:16;;;;;;;14.02;12.57;;;23.60;71.70;;;21.57;77.93;96247.19;5067725;28;20033;-65
2021/07/08 09:57:40;;;;;;;15.50;12.82;;;24.30;68.80;;;22.07;74.93;96237.16;5051723;28;20036;-65
2021/07/08 10:00:27;;;;;;;13.15;11.85;;;24.30;69.50;;;22.19;72.82;96229.72;5048267;28;20178;-65
2021/07/08 10:02:54;;;;;;;14.25;11.63;;;24.30;68.90;;;22.25;75.61;96224.13;5060872;28;20520;-68
2021/07/08 10:05:21;;;;;;;13.55;12.05;;;24.20;69.30;;;22.26;74.81;96224.94;5046702;28;20036;-65
2021/07/08 10:07:47;;;;;;;20.02;18.02;;;24.10;68.70;;;22.29;74.50;96235.13;5050403;28;20486;-65
2021/07/08 10:10:14;;;;;;;15.00;13.30;;;24.30;69.10;;;22.33;74.61;96246.94;5032444;28;20067;-66
2021/07/08 10:12:41;;;;;;;14.48;12.93;;;24.20;69.50;;;22.33;74.25;96255.00;5066247;28;20120;-66
2021/07/08 10:15:09;;;;;;;14.40;13.10;;;24.10;70.00;;;22.30;72.87;96252.84;5048145;28;20088;-70
2021/07/08 10:17:36;;;;;;;17.17;14.15;;;23.90;68.50;;;22.25;73.55;96250.13;5031943;28;20094;-69